Olmitz, KS (67564)

10:51 AM CDT on July 23, 2014 (GMT -0500)
Eisenhower School Area (KKSGREAT7) Elev 1860 ft | 38.36 °N, 98.79 °W | Change Station

Current weather conditions updated 4 minutes ago

Clear
Clear
78.5 °F
Feels Like 81 °F
N
0.0
Wind Variable Wind from East
Gusts 7.0 mph

Today is forecast to be Cooler than yesterday.

Today
High -- | Low -- °F
--% Chance of Precip.
Yesterday
High -- | Low -- °F
Precip. -- in
6:29 AM 8:54 PM
Waning Crescent, 10% visible
Pressure 30.21 in
Visibility 10.0 miles
Clouds Clear
Heat Index 81 °F
Dew Point 71 °F
Humidity 78%
Rainfall 0.00 in
Snow Depth Not available.
UV 7 out of 12
Pollen 5.70 out of 12
Air Quality Not available.
Flu Activity Not available.
METAR KGBD 231535Z AUTO 11011KT 10SM CLR 25/19 A3021 RMK AO1

More Conditions Fewer Conditions

Pressure 30.21 in
Visibility 10.0 miles
Clouds Clear
Heat Index 81 °F
Dew Point 71 °F
Humidity 78%
Rainfall 0.00 in
Snow Depth Not available.
UV 7 out of 12
Pollen 5.70 out of 12
Air Quality Not available.
Flu Activity Not available.
METAR KGBD 231535Z AUTO 11011KT 10SM CLR 25/19 A3021 RMK AO1

More Conditions Fewer Conditions

10-Day Weather Forecast

Almanac

Astronomy

Jul. 23, 2014 Rise Set
Actual Time 6:29 AM CDT 8:54 PM CDT
Civil Twilight 5:59 AM CDT 9:24 PM CDT
Nautical Twilight 5:22 AM CDT 10:01 PM CDT
Astronomical Twilight 4:40 AM CDT 10:42 PM CDT
Moon 3:49 AM CDT 6:24 PM CDT
Length of Visible Light 15h 24m
Length of Day
14h 24m
Tomorrow will be 1m 36s shorter.
Waning Crescent, 10% of the Moon is Illuminated
Today
Waning Crescent
Jul 26
New
Aug 3
First Quarter
Aug 10
Full
Aug 17
Last Quarter

Today's Extremes

State Highs State Lows

Community

WunderPhotos

Upload Photos

1,736,644 photos uploaded!

Nearby

Snow Depth

Station Depth Elevation
No new snow has been reported.

Earthquake Activity

City Distance Mag. Time & Date
Helena, Oklahoma 138 miles 3.2 8:41 AM CDT
2014-07-18
Cherokee, Oklahoma 135 miles 2.5 10:35 AM CDT
2014-07-17
Caldwell, Kansas 117 miles 3.6 5:40 AM CDT
2014-07-17
Minimum magnitude displayed is 2.5.

Coastal Water Temperatures

Place Temperature
No Stations Reporting

Nearby Weather Stations

Station Location Temp. Heat Index Dew Point Humidity Wind Precip. Elev Updated Type
Eisenhower School Area, Great Bend, KS 78.5 °F 81 °F 71 °F 78% East  at  0.0 mph 0.00 in / hr 1860 ft 10:46 AM CDT Normal
HADS ARKANSAS RIVER AT GREAT BEND KS, Great Bend, KS 75 °F 73 °F - - North  at  - 0.00 in / hr 1850 ft 9:30 AM CDT MADIS
Gorham Tele-Com, Gorham, KS 83.5 °F 87 °F 70 °F 63% NNE  at  4.0 mph 0.00 in / hr 1919 ft 10:51 AM CDT Rapid Fire
MesoWest WALKER , Walker, KS 72 °F - - - North  at  - 0.00 in / hr 1941 ft 8:00 AM CDT MADIS
Ruppenthal Middle School, Russell, KS 79.9 °F 82 °F 68 °F 67% SE  at  8.0 mph 0.00 in / hr 1854 ft 10:49 AM CDT Normal
Ellinwood High School, Ellinwood, KS 76.5 °F 78 °F 69 °F 78% ESE  at  4.0 mph 0.00 in / hr 1811 ft 10:51 AM CDT Rapid Fire

Show More Stations Show Fewer Stations